Time;durP1;ratioP1;P1;durP2;ratioP2;P2;SDS_P1;SDS_P2;PMS_P1;PMS_P2;Temp;Humidity;BMP_temperature;BMP_pressure;BME280_temperature;BME280_humidity;BME280_pressure;Samples;Min_cycle;Max_cycle;Signal;HPM_P1;HPM_P2
2022/08/26 00:01:16;;;;;;;6.38;3.13;;;;;;;;;;4989770;28;20363;-63
2022/08/26 00:03:41;;;;;;;9.73;3.28;;;;;;;;;;4991977;28;20336;-62
2022/08/26 00:06:07;;;;;;;8.75;3.28;;;;;;;;;;4989932;28;20343;-62
2022/08/26 00:08:34;;;;;;;7.30;3.25;;;;;;;;;;4989741;28;20466;-63
2022/08/26 00:10:59;;;;;;;12.07;2.97;;;;;;;;;;4990859;28;20055;-62
2022/08/26 00:13:25;;;;;;;5.95;3.13;;;;;;;;;;4990544;28;20017;-62
2022/08/26 00:15:51;;;;;;;9.27;4.00;;;;;;;;;;5021486;28;20463;-62
2022/08/26 00:18:17;;;;;;;7.93;3.35;;;;;;;;;;4990106;28;20451;-62
2022/08/26 00:20:43;;;;;;;7.80;3.45;;;;;;;;;;4989419;28;20404;-62
2022/08/26 00:23:08;;;;;;;7.93;3.20;;;;;;;;;;4989677;28;20123;-62
2022/08/26 00:25:34;;;;;;;13.90;3.50;;;;;;;;;;4989641;28;20360;-62
2022/08/26 00:28:00;;;;;;;15.07;4.45;;;;;;;;;;4991136;28;21155;-62
2022/08/26 00:30:27;;;;;;;9.07;3.38;;;;;;;;;;4989861;28;20451;-62
2022/08/26 00:32:53;;;;;;;13.43;3.85;;;;;;;;;;4989355;28;20336;-62
2022/08/26 00:35:19;;;;;;;11.95;3.65;;;;;;;;;;4990109;28;20332;-62
2022/08/26 00:37:44;;;;;;;9.95;3.08;;;;;;;;;;4989694;28;20048;-62
2022/08/26 00:40:15;;;;;;;6.60;2.40;;;;;;;;;;4989669;28;20397;-62
2022/08/26 00:42:41;;;;;;;8.38;2.80;;;;;;;;;;4989178;28;20506;-65
2022/08/26 00:45:07;;;;;;;8.60;3.10;;;;;;;;;;4989778;28;20447;-62
2022/08/26 00:47:36;;;;;;;9.25;3.22;;;;;;;;;;4989062;28;20387;-62
2022/08/26 00:50:05;;;;;;;10.82;3.35;;;;;;;;;;4987314;28;20439;-62
2022/08/26 00:52:31;;;;;;;5.43;3.08;;;;;;;;;;4987774;28;20418;-62
2022/08/26 00:55:06;;;;;;;5.38;3.20;;;;;;;;;;4987428;28;20340;-62
2022/08/26 00:57:32;;;;;;;8.05;3.30;;;;;;;;;;4988836;28;20447;-62
2022/08/26 00:59:59;;;;;;;12.52;3.00;;;;;;;;;;4991350;28;20498;-62
2022/08/26 01:02:26;;;;;;;9.60;3.53;;;;;;;;;;4982836;28;20316;-62
2022/08/26 01:04:54;;;;;;;10.13;3.50;;;;;;;;;;4971814;28;20515;-63
2022/08/26 01:07:20;;;;;;;;;;;;;;;;;;4969609;28;20349;-62
2022/08/26 01:09:46;;;;;;;3.90;2.70;;;;;;;;;;4970827;28;20244;-62
2022/08/26 01:12:12;;;;;;;7.85;3.72;;;;;;;;;;4967876;28;20436;-62
2022/08/26 01:14:39;;;;;;;7.53;3.10;;;;;;;;;;4967536;28;20076;-62
2022/08/26 01:17:06;;;;;;;10.07;3.13;;;;;;;;;;4968834;28;20502;-62
2022/08/26 01:19:46;;;;;;;12.05;3.78;;;;;;;;;;4969342;28;20030;-62
2022/08/26 01:22:19;;;;;;;6.40;3.40;;;;;;;;;;4967102;28;20516;-62
2022/08/26 01:24:45;;;;;;;9.35;3.50;;;;;;;;;;4968619;28;20131;-63
2022/08/26 01:27:13;;;;;;;15.48;3.55;;;;;;;;;;4969322;28;20445;-62
2022/08/26 01:29:40;;;;;;;7.30;3.00;;;;;;;;;;4967390;28;20486;-62
2022/08/26 01:32:08;;;;;;;9.55;3.05;;;;;;;;;;4968588;28;20341;-62
2022/08/26 01:34:36;;;;;;;9.57;3.70;;;;;;;;;;4968574;28;20440;-62
2022/08/26 01:37:12;;;;;;;8.93;2.95;;;;;;;;;;4966827;28;20333;-62
2022/08/26 01:39:38;;;;;;;9.68;3.22;;;;;;;;;;4968681;28;20409;-62
2022/08/26 01:42:06;;;;;;;10.77;3.85;;;;;;;;;;4969495;28;20026;-62
2022/08/26 01:44:39;;;;;;;6.32;3.28;;;;;;;;;;4968659;28;20450;-62
2022/08/26 01:47:05;;;;;;;9.23;3.45;;;;;;;;;;4966849;28;20531;-62
2022/08/26 01:49:33;;;;;;;10.07;3.40;;;;;;;;;;4968375;28;20409;-62
2022/08/26 01:51:59;;;;;;;6.32;3.50;;;;;;;;;;4967707;28;20466;-62
2022/08/26 01:54:25;;;;;;;6.28;3.25;;;;;;;;;;4966873;28;20390;-62
2022/08/26 01:56:51;;;;;;;4.20;2.85;;;;;;;;;;4968742;28;20386;-62
2022/08/26 01:59:18;;;;;;;4.57;2.85;;;;;;;;;;4966752;28;20326;-62
2022/08/26 02:01:44;;;;;;;10.18;3.15;;;;;;;;;;4968174;28;20441;-62
2022/08/26 02:04:32;;;;;;;9.48;3.47;;;;;;;;;;4968285;28;20490;-63
2022/08/26 02:06:58;;;;;;;7.53;2.85;;;;;;;;;;4968277;28;20069;-62
2022/08/26 02:09:25;;;;;;;9.15;3.15;;;;;;;;;;4968254;28;20553;-62
2022/08/26 02:11:51;;;;;;;5.97;3.28;;;;;;;;;;4969294;28;20491;-62
2022/08/26 02:14:22;;;;;;;7.68;2.80;;;;;;;;;;4968263;28;20439;-62
2022/08/26 02:16:50;;;;;;;15.88;3.67;;;;;;;;;;4968033;28;20021;-62
2022/08/26 02:19:20;;;;;;;7.28;3.42;;;;;;;;;;4969030;28;20503;-62
2022/08/26 02:21:47;;;;;;;7.70;3.15;;;;;;;;;;4969023;28;20479;-62
2022/08/26 02:24:16;;;;;;;6.07;2.63;;;;;;;;;;4966789;28;20460;-62
2022/08/26 02:26:42;;;;;;;9.60;2.88;;;;;;;;;;4968067;28;20351;-62
2022/08/26 02:29:44;;;;;;;7.00;2.95;;;;;;;;;;4967168;28;20320;-62
2022/08/26 02:32:09;;;;;;;10.10;3.60;;;;;;;;;;4954939;28;20484;-62
2022/08/26 02:34:35;;;;;;;5.25;2.90;;;;;;;;;;4969018;28;20551;-63
2022/08/26 02:37:04;;;;;;;8.48;2.70;;;;;;;;;;4971993;28;20022;-62
2022/08/26 02:39:31;;;;;;;6.07;2.67;;;;;;;;;;4971855;28;20459;-62
2022/08/26 02:41:58;;;;;;;10.77;3.63;;;;;;;;;;4971533;28;20478;-62
2022/08/26 02:44:24;;;;;;;5.32;2.67;;;;;;;;;;4971721;28;20440;-62
2022/08/26 02:46:50;;;;;;;5.50;2.58;;;;;;;;;;4972115;28;20452;-63
2022/08/26 02:49:15;;;;;;;5.97;3.00;;;;;;;;;;4971898;28;20455;-62
2022/08/26 02:51:40;;;;;;;5.63;2.65;;;;;;;;;;4972063;28;20084;-62
2022/08/26 02:54:06;;;;;;;7.10;3.35;;;;;;;;;;4971531;28;20417;-62
2022/08/26 02:56:32;;;;;;;9.88;2.97;;;;;;;;;;4972712;28;20498;-62
2022/08/26 02:58:58;;;;;;;7.32;3.25;;;;;;;;;;4971411;28;20432;-62
2022/08/26 03:01:28;;;;;;;10.52;2.53;;;;;;;;;;4971210;28;20464;-62
2022/08/26 03:03:54;;;;;;;5.85;2.50;;;;;;;;;;4971899;28;20388;-62
2022/08/26 03:06:20;;;;;;;9.65;3.47;;;;;;;;;;4971518;28;20479;-63
2022/08/26 03:08:45;;;;;;;8.20;3.17;;;;;;;;;;4973327;28;20412;-62
2022/08/26 03:11:11;;;;;;;7.90;2.97;;;;;;;;;;4971272;28;20429;-62
2022/08/26 03:13:38;;;;;;;6.32;3.05;;;;;;;;;;4972721;28;20416;-62
2022/08/26 03:16:03;;;;;;;10.70;2.97;;;;;;;;;;4971300;28;20054;-62
2022/08/26 03:18:29;;;;;;;9.23;2.90;;;;;;;;;;4971084;28;20535;-62
2022/08/26 03:20:54;;;;;;;8.80;3.00;;;;;;;;;;4971309;28;20509;-62
2022/08/26 03:23:19;;;;;;;10.13;3.20;;;;;;;;;;4971213;28;20455;-62
2022/08/26 03:25:52;;;;;;;10.35;3.05;;;;;;;;;;4972193;28;20033;-62
2022/08/26 03:28:18;;;;;;;12.75;3.63;;;;;;;;;;4985867;28;20447;-62
2022/08/26 03:30:44;;;;;;;7.60;3.20;;;;;;;;;;4970736;28;20337;-63
2022/08/26 03:33:10;;;;;;;6.25;2.90;;;;;;;;;;4971114;28;20061;-62
2022/08/26 03:35:38;;;;;;;7.90;2.72;;;;;;;;;;4970814;28;20367;-62
2022/08/26 03:38:05;;;;;;;6.78;2.80;;;;;;;;;;4970577;28;20478;-63
2022/08/26 03:40:35;;;;;;;7.90;3.22;;;;;;;;;;4970533;28;20456;-62
2022/08/26 03:43:01;;;;;;;4.68;2.80;;;;;;;;;;4970648;28;20364;-62
2022/08/26 03:45:27;;;;;;;7.85;3.13;;;;;;;;;;4970911;28;20044;-62
2022/08/26 03:47:52;;;;;;;6.63;3.20;;;;;;;;;;4970441;28;20460;-64
2022/08/26 03:50:20;;;;;;;8.70;2.83;;;;;;;;;;4971117;28;20411;-62
2022/08/26 03:52:46;;;;;;;16.58;3.30;;;;;;;;;;4970677;28;20465;-62
2022/08/26 03:55:13;;;;;;;6.88;2.85;;;;;;;;;;4970407;28;20498;-62
2022/08/26 03:57:38;;;;;;;6.20;2.67;;;;;;;;;;4985125;28;20344;-62
2022/08/26 04:00:06;;;;;;;4.47;2.67;;;;;;;;;;4970456;28;20372;-62
2022/08/26 04:02:31;;;;;;;6.37;3.03;;;;;;;;;;4969533;28;20480;-62
2022/08/26 04:04:57;;;;;;;14.57;3.05;;;;;;;;;;4970728;28;20386;-62
2022/08/26 04:07:24;;;;;;;4.97;2.53;;;;;;;;;;4971891;28;20347;-62
2022/08/26 04:09:56;;;;;;;12.20;2.75;;;;;;;;;;4970733;28;20324;-62
2022/08/26 04:12:23;;;;;;;11.07;3.10;;;;;;;;;;4970123;28;20040;-62
2022/08/26 04:14:49;;;;;;;5.93;2.55;;;;;;;;;;4969964;28;20448;-63
2022/08/26 04:17:14;;;;;;;7.75;2.65;;;;;;;;;;4984875;28;20437;-62
2022/08/26 04:19:40;;;;;;;5.60;2.30;;;;;;;;;;4970074;28;20415;-63
2022/08/26 04:22:06;;;;;;;7.53;2.92;;;;;;;;;;4969815;28;20412;-62
2022/08/26 04:24:33;;;;;;;7.20;2.67;;;;;;;;;;4969657;28;20345;-63
2022/08/26 04:26:58;;;;;;;8.02;2.83;;;;;;;;;;4969694;28;20503;-62
2022/08/26 04:29:25;;;;;;;6.15;2.97;;;;;;;;;;4970325;28;20423;-62
2022/08/26 04:31:53;;;;;;;8.73;2.45;;;;;;;;;;4969646;28;20120;-62
2022/08/26 04:34:19;;;;;;;9.05;3.42;;;;;;;;;;4969653;28;20088;-62
2022/08/26 04:36:44;;;;;;;17.48;2.60;;;;;;;;;;4969626;28;20099;-62
2022/08/26 04:39:11;;;;;;;6.10;2.33;;;;;;;;;;4969925;28;20336;-62
2022/08/26 04:41:37;;;;;;;5.95;2.88;;;;;;;;;;4969563;28;20069;-62
2022/08/26 04:44:05;;;;;;;13.27;2.85;;;;;;;;;;4969299;28;20033;-62
2022/08/26 04:46:31;;;;;;;5.38;2.30;;;;;;;;;;4969273;28;20432;-62
2022/08/26 04:48:56;;;;;;;4.82;2.97;;;;;;;;;;4969532;28;20322;-62
2022/08/26 04:51:27;;;;;;;9.68;2.58;;;;;;;;;;4970373;28;20025;-62
2022/08/26 04:53:56;;;;;;;5.32;2.33;;;;;;;;;;4969208;28;20457;-62
2022/08/26 04:56:26;;;;;;;6.88;2.50;;;;;;;;;;4969229;28;20447;-62
2022/08/26 04:58:52;;;;;;;6.65;2.20;;;;;;;;;;4968750;28;20455;-62
2022/08/26 05:01:19;;;;;;;6.78;2.70;;;;;;;;;;4971664;28;20420;-62
2022/08/26 05:03:45;;;;;;;4.35;1.80;;;;;;;;;;4969059;28;20498;-62
2022/08/26 05:06:11;;;;;;;15.52;2.67;;;;;;;;;;4968898;28;20391;-62
2022/08/26 05:08:36;;;;;;;4.90;2.47;;;;;;;;;;4968985;28;20448;-62
2022/08/26 05:11:03;;;;;;;8.23;1.98;;;;;;;;;;4970990;28;20574;-62
2022/08/26 05:13:29;;;;;;;7.43;2.40;;;;;;;;;;4970136;28;20132;-62
2022/08/26 05:15:54;;;;;;;7.50;2.28;;;;;;;;;;4969138;28;20429;-62
2022/08/26 05:18:21;;;;;;;5.82;2.15;;;;;;;;;;4970302;28;20455;-62
2022/08/26 05:20:49;;;;;;;3.00;1.92;;;;;;;;;;4950991;28;20341;-62
2022/08/26 05:23:15;;;;;;;7.43;2.30;;;;;;;;;;4968987;28;20503;-62
2022/08/26 05:25:43;;;;;;;6.30;2.40;;;;;;;;;;4968791;28;20691;-62
2022/08/26 05:28:10;;;;;;;10.07;2.17;;;;;;;;;;4969696;28;20029;-62
2022/08/26 05:30:36;;;;;;;8.32;2.58;;;;;;;;;;4968797;28;20349;-62
2022/08/26 05:33:02;;;;;;;7.80;2.47;;;;;;;;;;4968452;28;20436;-62
2022/08/26 05:35:32;;;;;;;9.13;2.42;;;;;;;;;;4969260;28;20450;-62
2022/08/26 05:37:59;;;;;;;18.35;3.25;;;;;;;;;;4968698;28;20022;-62
2022/08/26 05:40:25;;;;;;;5.85;2.10;;;;;;;;;;4968455;28;20356;-62
2022/08/26 05:42:51;;;;;;;9.65;2.35;;;;;;;;;;4968660;28;20048;-62
2022/08/26 05:45:17;;;;;;;6.78;2.45;;;;;;;;;;4968396;28;20516;-62
2022/08/26 05:47:43;;;;;;;13.07;2.65;;;;;;;;;;4968152;28;20392;-62
2022/08/26 05:50:08;;;;;;;10.32;2.17;;;;;;;;;;4969930;28;20321;-62
2022/08/26 05:52:34;;;;;;;5.05;2.22;;;;;;;;;;4969147;28;20440;-63
2022/08/26 05:55:00;;;;;;;11.95;2.50;;;;;;;;;;4968703;28;20027;-62
2022/08/26 05:57:27;;;;;;;5.90;2.22;;;;;;;;;;4968821;28;20462;-62
2022/08/26 05:59:53;;;;;;;7.68;2.65;;;;;;;;;;4968373;28;20491;-62
2022/08/26 06:02:19;;;;;;;11.52;3.15;;;;;;;;;;4968721;28;20518;-63
2022/08/26 06:04:44;;;;;;;12.23;2.28;;;;;;;;;;4968100;28;20564;-62
2022/08/26 06:07:09;;;;;;;14.57;3.20;;;;;;;;;;4968070;28;20513;-63
2022/08/26 06:09:38;;;;;;;5.70;2.70;;;;;;;;;;4972757;28;20333;-62
2022/08/26 06:12:03;;;;;;;9.88;2.65;;;;;;;;;;4972086;28;20352;-63
2022/08/26 06:14:29;;;;;;;8.40;2.80;;;;;;;;;;4972412;28;20391;-62
2022/08/26 06:16:55;;;;;;;10.13;2.90;;;;;;;;;;4972036;28;20021;-62
2022/08/26 06:19:21;;;;;;;6.28;2.33;;;;;;;;;;4972138;28;20586;-63
2022/08/26 06:21:47;;;;;;;4.15;1.85;;;;;;;;;;4973719;28;20340;-62
2022/08/26 06:26:59;;;;;;;6.53;2.80;;;;;;;;;;4973630;28;20056;-62
2022/08/26 06:29:25;;;;;;;16.35;3.67;;;;;;;;;;4972045;28;20435;-62
2022/08/26 06:31:52;;;;;;;8.45;3.05;;;;;;;;;;4971947;28;20026;-62
2022/08/26 06:34:18;;;;;;;7.03;2.65;;;;;;;;;;4971868;28;20376;-62
2022/08/26 06:36:46;;;;;;;5.60;2.65;;;;;;;;;;4970058;28;20018;-62
2022/08/26 06:39:13;;;;;;;7.85;2.35;;;;;;;;;;4971764;28;20436;-62
2022/08/26 06:41:39;;;;;;;6.78;2.38;;;;;;;;;;4973688;28;20573;-62
2022/08/26 06:44:05;;;;;;;5.07;2.92;;;;;;;;;;4971734;28;20563;-63
2022/08/26 06:46:32;;;;;;;5.78;2.30;;;;;;;;;;4971438;28;20098;-62
2022/08/26 06:48:57;;;;;;;4.35;2.20;;;;;;;;;;4971685;28;20439;-63
2022/08/26 06:51:25;;;;;;;5.03;2.28;;;;;;;;;;4972515;28;20451;-62
2022/08/26 06:53:52;;;;;;;4.03;2.35;;;;;;;;;;4971497;28;20388;-62
2022/08/26 06:56:21;;;;;;;5.50;2.53;;;;;;;;;;4971444;28;20336;-62
2022/08/26 06:58:46;;;;;;;;;;;;;;;;;;4971851;28;20391;-63
2022/08/26 07:01:20;;;;;;;6.18;2.38;;;;;;;;;;4971494;28;20318;-62
2022/08/26 07:03:47;;;;;;;4.05;2.40;;;;;;;;;;4971145;28;20448;-63
2022/08/26 07:06:12;;;;;;;6.03;2.35;;;;;;;;;;4971540;28;20463;-62
2022/08/26 07:08:38;;;;;;;8.35;2.03;;;;;;;;;;4971323;28;20449;-63
2022/08/26 07:11:05;;;;;;;5.50;2.58;;;;;;;;;;4971400;28;20432;-62
2022/08/26 07:13:31;;;;;;;4.70;2.38;;;;;;;;;;4973480;28;20021;-62
2022/08/26 07:15:56;;;;;;;7.22;2.58;;;;;;;;;;4972374;28;20429;-62
2022/08/26 07:18:22;;;;;;;9.35;2.55;;;;;;;;;;4971477;28;20448;-62
2022/08/26 07:20:47;;;;;;;7.68;2.40;;;;;;;;;;4970532;28;20459;-62
2022/08/26 07:23:13;;;;;;;3.38;2.13;;;;;;;;;;4970899;28;20464;-63
2022/08/26 07:25:40;;;;;;;15.93;2.45;;;;;;;;;;4971092;28;20429;-62
2022/08/26 07:28:05;;;;;;;6.43;2.47;;;;;;;;;;4972288;28;20101;-62
2022/08/26 07:30:31;;;;;;;4.22;2.58;;;;;;;;;;4973785;28;20052;-64
2022/08/26 07:32:58;;;;;;;7.65;2.75;;;;;;;;;;4971086;28;20334;-63
2022/08/26 07:35:25;;;;;;;8.77;2.35;;;;;;;;;;4971014;28;20467;-63
2022/08/26 07:37:51;;;;;;;5.57;2.10;;;;;;;;;;4970561;28;20357;-62
2022/08/26 07:40:16;;;;;;;6.53;2.60;;;;;;;;;;4970780;28;20432;-62
2022/08/26 07:42:42;;;;;;;9.18;2.22;;;;;;;;;;4970625;28;20471;-63
2022/08/26 07:45:07;;;;;;;22.83;3.67;;;;;;;;;;4970905;28;20463;-62
2022/08/26 07:47:33;;;;;;;8.15;2.17;;;;;;;;;;4970503;28;20483;-62
2022/08/26 07:49:59;;;;;;;11.45;2.55;;;;;;;;;;4971547;28;20531;-62
2022/08/26 07:52:27;;;;;;;3.17;1.80;;;;;;;;;;4970605;28;20406;-62
2022/08/26 07:54:54;;;;;;;5.15;1.90;;;;;;;;;;4970654;28;20404;-62
2022/08/26 07:57:20;;;;;;;4.53;2.30;;;;;;;;;;4970682;28;20445;-62
2022/08/26 07:59:45;;;;;;;5.68;2.33;;;;;;;;;;4970571;28;20428;-62
2022/08/26 08:02:10;;;;;;;7.13;2.30;;;;;;;;;;4970255;28;20464;-62
2022/08/26 08:04:36;;;;;;;5.57;2.20;;;;;;;;;;4970216;28;20432;-62
2022/08/26 08:07:01;;;;;;;5.28;1.95;;;;;;;;;;4971089;28;20411;-62
2022/08/26 08:09:27;;;;;;;3.25;1.95;;;;;;;;;;4970386;28;20468;-63
2022/08/26 08:11:53;;;;;;;8.65;2.00;;;;;;;;;;4970055;28;20557;-62
2022/08/26 08:14:19;;;;;;;3.17;2.13;;;;;;;;;;4971621;28;20321;-62
2022/08/26 08:16:44;;;;;;;4.57;2.13;;;;;;;;;;4971546;28;20332;-63
2022/08/26 08:19:10;;;;;;;6.65;2.17;;;;;;;;;;4970867;28;20372;-62
2022/08/26 08:21:35;;;;;;;8.32;2.28;;;;;;;;;;4972239;28;20289;-62
2022/08/26 08:24:01;;;;;;;2.83;1.98;;;;;;;;;;4969951;28;20408;-62
2022/08/26 08:26:26;;;;;;;10.77;2.42;;;;;;;;;;4970061;28;20348;-63
2022/08/26 08:28:56;;;;;;;4.10;2.40;;;;;;;;;;4970303;28;20433;-62
2022/08/26 08:31:27;;;;;;;4.57;2.25;;;;;;;;;;4968005;28;20091;-62
2022/08/26 08:33:52;;;;;;;2.72;1.80;;;;;;;;;;4968011;28;20030;-62
2022/08/26 08:36:18;;;;;;;9.02;2.28;;;;;;;;;;4969147;28;20464;-62
2022/08/26 08:38:44;;;;;;;6.43;2.60;;;;;;;;;;4969665;28;20326;-63
2022/08/26 08:41:26;;;;;;;6.07;2.25;;;;;;;;;;4969466;28;20348;-63
2022/08/26 08:43:52;;;;;;;6.65;2.33;;;;;;;;;;4969525;28;20340;-62
2022/08/26 08:46:18;;;;;;;5.88;2.03;;;;;;;;;;4967934;28;20033;-63
2022/08/26 08:48:51;;;;;;;3.65;2.00;;;;;;;;;;4969187;28;20158;-62
2022/08/26 08:51:38;;;;;;;5.63;2.20;;;;;;;;;;4971071;28;20394;-62
2022/08/26 08:54:04;;;;;;;4.30;2.40;;;;;;;;;;4970476;28;20563;-63
2022/08/26 08:56:37;;;;;;;3.92;1.92;;;;;;;;;;4971410;28;20528;-63
2022/08/26 08:59:12;;;;;;;5.30;2.00;;;;;;;;;;4969257;28;20078;-63
2022/08/26 09:01:50;;;;;;;9.23;2.25;;;;;;;;;;4969449;28;20455;-62
2022/08/26 09:04:44;;;;;;;3.40;1.95;;;;;;;;;;4969535;28;20334;-63
2022/08/26 09:07:17;;;;;;;6.95;2.20;;;;;;;;;;4968901;28;20072;-63
2022/08/26 09:09:56;;;;;;;4.38;1.95;;;;;;;;;;4969248;28;20397;-62
2022/08/26 09:12:30;;;;;;;4.00;2.08;;;;;;;;;;4967466;28;20458;-63
2022/08/26 09:15:12;;;;;;;6.28;2.30;;;;;;;;;;4969029;28;20387;-63
2022/08/26 09:17:58;;;;;;;4.72;1.90;;;;;;;;;;4967784;28;20568;-62
2022/08/26 09:20:38;;;;;;;8.00;2.40;;;;;;;;;;4967425;28;20156;-63
2022/08/26 09:23:03;;;;;;;6.57;2.15;;;;;;;;;;4968725;28;20037;-63
2022/08/26 09:25:29;;;;;;;8.88;2.45;;;;;;;;;;4970952;28;20459;-63
2022/08/26 09:27:54;;;;;;;3.78;2.08;;;;;;;;;;4968665;28;20325;-63
2022/08/26 09:30:31;;;;;;;6.07;2.40;;;;;;;;;;4968802;28;20405;-62
2022/08/26 09:33:05;;;;;;;4.90;1.88;;;;;;;;;;4970700;28;20421;-62
2022/08/26 09:35:39;;;;;;;4.35;1.77;;;;;;;;;;4969802;28;20052;-63
2022/08/26 09:38:26;;;;;;;4.78;1.65;;;;;;;;;;4968652;28;20400;-63
2022/08/26 09:41:00;;;;;;;3.78;1.58;;;;;;;;;;4968512;28;20356;-63
2022/08/26 09:43:27;;;;;;;4.15;2.38;;;;;;;;;;4968508;28;20433;-63
2022/08/26 09:46:08;;;;;;;5.05;2.00;;;;;;;;;;4968904;28;20309;-62
2022/08/26 09:48:35;;;;;;;7.72;2.00;;;;;;;;;;4969039;28;20068;-63
2022/08/26 09:51:22;;;;;;;4.78;1.88;;;;;;;;;;4966905;28;20383;-62
2022/08/26 09:53:58;;;;;;;8.25;1.80;;;;;;;;;;4969348;28;20518;-63
2022/08/26 09:56:28;;;;;;;5.00;1.85;;;;;;;;;;4967066;28;20317;-63
2022/08/26 09:58:55;;;;;;;3.40;1.70;;;;;;;;;;4968513;28;20377;-62
2022/08/26 10:01:40;;;;;;;3.03;1.50;;;;;;;;;;4966897;28;20326;-62
2022/08/26 10:04:07;;;;;;;3.67;1.70;;;;;;;;;;4968837;28;20415;-63
2022/08/26 10:06:37;;;;;;;4.47;1.88;;;;;;;;;;4969081;28;20321;-62
2022/08/26 10:09:02;;;;;;;3.67;1.50;;;;;;;;;;4967981;28;20339;-62
2022/08/26 10:11:38;;;;;;;5.28;1.75;;;;;;;;;;4968821;28;20328;-63
2022/08/26 10:14:32;;;;;;;4.10;1.60;;;;;;;;;;4967603;28;20432;-62
2022/08/26 10:17:00;;;;;;;5.03;1.33;;;;;;;;;;4969940;28;20329;-62
2022/08/26 10:19:34;;;;;;;5.55;1.80;;;;;;;;;;4969106;28;20498;-62
2022/08/26 10:22:04;;;;;;;8.45;1.92;;;;;;;;;;4969157;28;20466;-63
2022/08/26 10:24:34;;;;;;;3.53;1.90;;;;;;;;;;4966888;28;20343;-63
2022/08/26 10:27:31;;;;;;;2.65;1.55;;;;;;;;;;4968396;28;20464;-62
2022/08/26 10:30:05;;;;;;;3.45;1.45;;;;;;;;;;4962682;28;20346;-62
2022/08/26 10:32:37;;;;;;;6.43;1.40;;;;;;;;;;4968076;28;20444;-62
2022/08/26 10:35:05;;;;;;;4.05;1.73;;;;;;;;;;4967121;28;20507;-63
2022/08/26 10:38:03;;;;;;;4.03;2.08;;;;;;;;;;4967083;28;20048;-62
2022/08/26 10:40:53;;;;;;;4.80;1.58;;;;;;;;;;4959886;28;20400;-63
2022/08/26 10:43:25;;;;;;;4.53;1.65;;;;;;;;;;4968185;28;20037;-63
2022/08/26 10:45:53;;;;;;;5.90;1.55;;;;;;;;;;4967089;28;20414;-62
2022/08/26 10:48:35;;;;;;;6.15;2.15;;;;;;;;;;4967658;28;20539;-62
2022/08/26 10:51:02;;;;;;;4.80;1.75;;;;;;;;;;4966169;28;20437;-62
2022/08/26 10:53:48;;;;;;;9.40;2.03;;;;;;;;;;4966236;28;20467;-63
2022/08/26 10:56:42;;;;;;;6.90;1.67;;;;;;;;;;4968593;28;20364;-62
2022/08/26 10:59:19;;;;;;;9.50;1.67;;;;;;;;;;4971057;28;20403;-64
2022/08/26 11:01:49;;;;;;;5.75;1.48;;;;;;;;;;4971556;28;20515;-63
2022/08/26 11:04:27;;;;;;;3.33;1.55;;;;;;;;;;4973045;28;20379;-63
2022/08/26 11:07:30;;;;;;;4.55;1.30;;;;;;;;;;4971599;28;20034;-63
2022/08/26 11:10:14;;;;;;;6.13;2.10;;;;;;;;;;4973759;28;20428;-60
2022/08/26 11:12:40;;;;;;;3.63;1.70;;;;;;;;;;4969843;28;20460;-60
2022/08/26 11:15:07;;;;;;;7.60;1.40;;;;;;;;;;4971364;28;20041;-65
2022/08/26 11:17:45;;;;;;;2.42;1.17;;;;;;;;;;4969801;28;20372;-60
2022/08/26 11:20:32;;;;;;;8.68;2.08;;;;;;;;;;4971208;28;20456;-60
2022/08/26 11:23:15;;;;;;;6.88;1.58;;;;;;;;;;4971110;28;20345;-61
2022/08/26 11:26:08;;;;;;;5.63;1.45;;;;;;;;;;4970759;28;20472;-60
2022/08/26 11:28:43;;;;;;;7.68;1.40;;;;;;;;;;4971564;28;20325;-60
2022/08/26 11:31:18;;;;;;;3.78;1.38;;;;;;;;;;4971279;28;20376;-60
2022/08/26 11:33:47;;;;;;;4.20;1.40;;;;;;;;;;4971802;28;20436;-61
2022/08/26 11:36:37;;;;;;;4.00;1.20;;;;;;;;;;4970909;28;20347;-61
2022/08/26 11:39:38;;;;;;;12.38;1.90;;;;;;;;;;4970776;28;20444;-61
2022/08/26 11:42:30;;;;;;;3.83;1.30;;;;;;;;;;4967459;28;20042;-60
2022/08/26 11:44:56;;;;;;;12.00;1.45;;;;;;;;;;4970966;28;20483;-60
2022/08/26 11:47:28;;;;;;;3.75;1.20;;;;;;;;;;4970254;28;20136;-60
2022/08/26 11:50:17;;;;;;;3.42;1.20;;;;;;;;;;4970636;28;20445;-61
2022/08/26 11:53:00;;;;;;;6.35;1.20;;;;;;;;;;4972229;28;20413;-60
2022/08/26 11:55:30;;;;;;;6.22;1.77;;;;;;;;;;4971604;28;20567;-60
2022/08/26 11:57:58;;;;;;;4.93;1.02;;;;;;;;;;4971938;28;20344;-60
2022/08/26 12:00:45;;;;;;;2.20;1.08;;;;;;;;;;4970650;28;20124;-60
2022/08/26 12:03:19;;;;;;;2.87;1.50;;;;;;;;;;4970233;28;20436;-61
2022/08/26 12:05:48;;;;;;;4.25;1.30;;;;;;;;;;4971206;28;20545;-61
2022/08/26 12:08:15;;;;;;;;;;;;;;;;;;4971659;28;20447;-61
2022/08/26 12:10:41;;;;;;;1.95;0.95;;;;;;;;;;4971265;28;20264;-60
2022/08/26 12:13:07;;;;;;;7.03;1.60;;;;;;;;;;4970036;28;20029;-61
2022/08/26 12:15:34;;;;;;;4.95;1.20;;;;;;;;;;4970087;28;20513;-60
2022/08/26 12:18:21;;;;;;;1.80;0.93;;;;;;;;;;4969925;28;20459;-60
2022/08/26 12:20:47;;;;;;;5.20;1.27;;;;;;;;;;4970019;28;20477;-61
2022/08/26 12:23:35;;;;;;;2.00;1.45;;;;;;;;;;4969612;28;20345;-61
2022/08/26 12:26:08;;;;;;;5.13;1.05;;;;;;;;;;4969942;28;20030;-61
2022/08/26 12:28:41;;;;;;;6.10;1.30;;;;;;;;;;4968879;28;20529;-60
2022/08/26 12:31:06;;;;;;;6.68;1.50;;;;;;;;;;4968366;28;20489;-60
2022/08/26 12:33:34;;;;;;;5.82;1.20;;;;;;;;;;4971441;28;20495;-61
2022/08/26 12:36:00;;;;;;;;;;;;;;;;;;4968576;28;20325;-60
2022/08/26 12:38:26;;;;;;;2.03;1.02;;;;;;;;;;4970725;28;20225;-61
2022/08/26 12:40:52;;;;;;;4.45;1.23;;;;;;;;;;4972314;28;20029;-60
2022/08/26 12:43:41;;;;;;;3.13;1.23;;;;;;;;;;4969988;28;20455;-61
2022/08/26 12:46:10;;;;;;;2.40;1.30;;;;;;;;;;4969484;28;20322;-61
2022/08/26 12:48:37;;;;;;;5.55;1.35;;;;;;;;;;4967931;28;20060;-62
2022/08/26 12:51:05;;;;;;;3.17;1.20;;;;;;;;;;4968260;28;20030;-61
2022/08/26 12:53:32;;;;;;;5.78;1.70;;;;;;;;;;4968723;28;20313;-61
2022/08/26 12:56:02;;;;;;;7.05;1.30;;;;;;;;;;4969724;28;20343;-64
2022/08/26 12:58:34;;;;;;;3.75;1.20;;;;;;;;;;4969318;28;20469;-64
2022/08/26 13:01:03;;;;;;;6.35;1.40;;;;;;;;;;4969601;28;20399;-63
2022/08/26 13:03:36;;;;;;;3.03;1.52;;;;;;;;;;4969696;28;20025;-63
2022/08/26 13:06:19;;;;;;;2.13;1.40;;;;;;;;;;4969790;28;20073;-63
2022/08/26 13:09:05;;;;;;;1.70;1.05;;;;;;;;;;4969275;28;20325;-63
2022/08/26 13:11:34;;;;;;;2.92;1.20;;;;;;;;;;4969617;28;20348;-63
2022/08/26 13:14:13;;;;;;;2.33;1.25;;;;;;;;;;4969949;28;20463;-63
2022/08/26 13:16:40;;;;;;;6.00;1.60;;;;;;;;;;4969356;28;20341;-63
2022/08/26 13:19:09;;;;;;;2.28;1.17;;;;;;;;;;4969219;28;20091;-63
2022/08/26 13:21:39;;;;;;;2.65;1.15;;;;;;;;;;4968943;28;20452;-63
2022/08/26 13:24:13;;;;;;;3.83;1.50;;;;;;;;;;4969137;28;20092;-63
2022/08/26 13:26:44;;;;;;;4.28;1.20;;;;;;;;;;4968773;28;20506;-63
2022/08/26 13:29:10;;;;;;;4.75;1.73;;;;;;;;;;4968713;28;20172;-63
2022/08/26 13:31:38;;;;;;;3.28;1.27;;;;;;;;;;4968285;28;20029;-64
2022/08/26 13:34:03;;;;;;;5.70;1.48;;;;;;;;;;4967202;28;20344;-63
2022/08/26 13:36:29;;;;;;;5.53;1.50;;;;;;;;;;4970002;28;20033;-63
2022/08/26 13:38:54;;;;;;;4.15;1.63;;;;;;;;;;4999968;28;20386;-62
2022/08/26 13:41:19;;;;;;;3.72;1.40;;;;;;;;;;4968601;28;20452;-62
2022/08/26 13:43:45;;;;;;;6.07;1.75;;;;;;;;;;4967447;28;20335;-63
2022/08/26 13:46:10;;;;;;;3.17;1.33;;;;;;;;;;4968593;28;20444;-63
2022/08/26 13:48:36;;;;;;;4.97;1.58;;;;;;;;;;4967434;28;20463;-63
2022/08/26 13:51:01;;;;;;;5.28;2.63;;;;;;;;;;4967230;28;20436;-63
2022/08/26 13:53:29;;;;;;;3.85;1.50;;;;;;;;;;4968644;28;20263;-62
2022/08/26 13:55:55;;;;;;;12.63;2.20;;;;;;;;;;4968445;28;20344;-63
2022/08/26 13:58:20;;;;;;;7.45;2.08;;;;;;;;;;4969045;28;20029;-63
2022/08/26 14:00:45;;;;;;;4.72;1.50;;;;;;;;;;4968227;28;20037;-62
2022/08/26 14:03:11;;;;;;;4.07;1.52;;;;;;;;;;4968321;28;20433;-62
2022/08/26 14:05:36;;;;;;;3.15;1.80;;;;;;;;;;4983795;28;20459;-63
2022/08/26 14:08:02;;;;;;;2.88;1.70;;;;;;;;;;4968193;28;20356;-63
2022/08/26 14:10:27;;;;;;;4.15;1.40;;;;;;;;;;4968510;28;20436;-63
2022/08/26 14:12:54;;;;;;;5.25;1.85;;;;;;;;;;4968294;28;20425;-63
2022/08/26 14:15:20;;;;;;;2.70;1.35;;;;;;;;;;4968429;28;20344;-62
2022/08/26 14:17:46;;;;;;;6.88;2.28;;;;;;;;;;4968268;28;20344;-62
2022/08/26 14:20:15;;;;;;;5.63;1.63;;;;;;;;;;4969570;28;20061;-63
2022/08/26 14:22:41;;;;;;;;;;;;;;;;;;4968833;28;20452;-63
2022/08/26 14:25:07;;;;;;;3.97;1.58;;;;;;;;;;4968199;28;20243;-62
2022/08/26 14:27:33;;;;;;;6.50;2.13;;;;;;;;;;4967473;28;20372;-62
2022/08/26 14:29:58;;;;;;;2.85;1.35;;;;;;;;;;4969818;28;20380;-62
2022/08/26 14:32:25;;;;;;;5.60;1.35;;;;;;;;;;4971981;28;20458;-62
2022/08/26 14:34:50;;;;;;;3.75;1.73;;;;;;;;;;4972163;28;20479;-62
2022/08/26 14:37:16;;;;;;;3.92;1.77;;;;;;;;;;4972066;28;20531;-62
2022/08/26 14:39:43;;;;;;;3.45;1.90;;;;;;;;;;4971933;28;20436;-63
2022/08/26 14:42:09;;;;;;;3.42;1.73;;;;;;;;;;4971764;28;20429;-63
2022/08/26 14:44:34;;;;;;;3.20;1.98;;;;;;;;;;4971901;28;20343;-62
2022/08/26 14:47:01;;;;;;;3.08;1.58;;;;;;;;;;4972168;28;21145;-62
2022/08/26 14:49:27;;;;;;;10.80;1.73;;;;;;;;;;4970166;28;20467;-62
2022/08/26 14:51:53;;;;;;;8.52;1.60;;;;;;;;;;4971508;28;20448;-63
2022/08/26 14:54:19;;;;;;;8.27;1.83;;;;;;;;;;4970613;28;20367;-63
2022/08/26 14:56:53;;;;;;;3.90;1.80;;;;;;;;;;4972399;28;20057;-62
2022/08/26 14:59:21;;;;;;;5.25;1.80;;;;;;;;;;4970404;28;20466;-62